sensor_id;sensor_type;location;lat;lon;timestamp;P1;durP1;ratioP1;P2;durP2;ratioP2
14040;SDS011;7095;51.388;6.196;2023-02-01T00:01:29;28.63;;;11.13;;
14040;SDS011;7095;51.388;6.196;2023-02-01T00:03:58;31.73;;;12.70;;
14040;SDS011;7095;51.388;6.196;2023-02-01T00:06:26;29.27;;;11.93;;
14040;SDS011;7095;51.388;6.196;2023-02-01T00:08:55;34.57;;;12.57;;
14040;SDS011;7095;51.388;6.196;2023-02-01T00:11:24;25.60;;;10.97;;
14040;SDS011;7095;51.388;6.196;2023-02-01T00:13:52;29.40;;;11.57;;
14040;SDS011;7095;51.388;6.196;2023-02-01T00:16:22;28.77;;;10.83;;
14040;SDS011;7095;51.388;6.196;2023-02-01T00:18:56;23.73;;;11.30;;
14040;SDS011;7095;51.388;6.196;2023-02-01T00:21:26;29.10;;;10.27;;
14040;SDS011;7095;51.388;6.196;2023-02-01T00:23:55;31.43;;;10.17;;
14040;SDS011;7095;51.388;6.196;2023-02-01T00:26:25;26.17;;;9.70;;
14040;SDS011;7095;51.388;6.196;2023-02-01T00:28:58;27.53;;;9.50;;
14040;SDS011;7095;51.388;6.196;2023-02-01T00:31:27;31.63;;;10.03;;
14040;SDS011;7095;51.388;6.196;2023-02-01T00:33:57;28.57;;;8.20;;
14040;SDS011;7095;51.388;6.196;2023-02-01T00:36:26;28.83;;;7.97;;
14040;SDS011;7095;51.388;6.196;2023-02-01T00:38:55;26.90;;;7.60;;
14040;SDS011;7095;51.388;6.196;2023-02-01T00:41:24;21.90;;;7.50;;
14040;SDS011;7095;51.388;6.196;2023-02-01T00:43:53;21.60;;;7.77;;
14040;SDS011;7095;51.388;6.196;2023-02-01T00:46:22;25.47;;;8.33;;
14040;SDS011;7095;51.388;6.196;2023-02-01T00:48:50;21.10;;;6.90;;
14040;SDS011;7095;51.388;6.196;2023-02-01T00:51:21;19.57;;;7.43;;
14040;SDS011;7095;51.388;6.196;2023-02-01T00:53:51;28.97;;;8.37;;
14040;SDS011;7095;51.388;6.196;2023-02-01T00:56:21;28.13;;;8.17;;
14040;SDS011;7095;51.388;6.196;2023-02-01T00:58:49;22.07;;;7.70;;
14040;SDS011;7095;51.388;6.196;2023-02-01T01:01:18;18.80;;;6.50;;
14040;SDS011;7095;51.388;6.196;2023-02-01T01:03:49;19.37;;;6.23;;
14040;SDS011;7095;51.388;6.196;2023-02-01T01:06:21;20.43;;;5.67;;
14040;SDS011;7095;51.388;6.196;2023-02-01T01:08:51;21.07;;;6.27;;
14040;SDS011;7095;51.388;6.196;2023-02-01T01:11:20;20.63;;;5.60;;
14040;SDS011;7095;51.388;6.196;2023-02-01T01:13:51;27.80;;;6.27;;
14040;SDS011;7095;51.388;6.196;2023-02-01T01:16:21;23.57;;;6.00;;
14040;SDS011;7095;51.388;6.196;2023-02-01T01:18:50;20.70;;;5.70;;
14040;SDS011;7095;51.388;6.196;2023-02-01T01:21:20;15.20;;;4.93;;
14040;SDS011;7095;51.388;6.196;2023-02-01T01:23:49;26.57;;;6.20;;
14040;SDS011;7095;51.388;6.196;2023-02-01T01:26:18;21.77;;;4.83;;
14040;SDS011;7095;51.388;6.196;2023-02-01T01:28:49;16.97;;;4.63;;
14040;SDS011;7095;51.388;6.196;2023-02-01T01:31:18;18.33;;;5.03;;
14040;SDS011;7095;51.388;6.196;2023-02-01T01:33:48;18.90;;;4.53;;
14040;SDS011;7095;51.388;6.196;2023-02-01T01:36:18;26.60;;;5.10;;
14040;SDS011;7095;51.388;6.196;2023-02-01T01:38:49;24.60;;;4.70;;
14040;SDS011;7095;51.388;6.196;2023-02-01T01:41:18;25.17;;;5.67;;
14040;SDS011;7095;51.388;6.196;2023-02-01T01:43:53;19.40;;;5.50;;
14040;SDS011;7095;51.388;6.196;2023-02-01T01:46:26;22.17;;;6.07;;
14040;SDS011;7095;51.388;6.196;2023-02-01T01:49:02;24.63;;;5.63;;
14040;SDS011;7095;51.388;6.196;2023-02-01T01:51:36;25.63;;;5.53;;
14040;SDS011;7095;51.388;6.196;2023-02-01T01:54:11;22.10;;;5.23;;
14040;SDS011;7095;51.388;6.196;2023-02-01T01:56:45;18.30;;;4.50;;
14040;SDS011;7095;51.388;6.196;2023-02-01T01:59:17;16.23;;;4.77;;
14040;SDS011;7095;51.388;6.196;2023-02-01T02:01:47;18.17;;;5.13;;
14040;SDS011;7095;51.388;6.196;2023-02-01T02:04:16;19.53;;;5.27;;
14040;SDS011;7095;51.388;6.196;2023-02-01T02:06:45;25.33;;;4.97;;
14040;SDS011;7095;51.388;6.196;2023-02-01T02:09:19;29.80;;;6.37;;
14040;SDS011;7095;51.388;6.196;2023-02-01T02:11:48;16.37;;;4.90;;
14040;SDS011;7095;51.388;6.196;2023-02-01T02:14:17;21.53;;;4.97;;
14040;SDS011;7095;51.388;6.196;2023-02-01T02:16:54;21.10;;;4.13;;
14040;SDS011;7095;51.388;6.196;2023-02-01T02:22:55;27.53;;;5.73;;
14040;SDS011;7095;51.388;6.196;2023-02-01T02:25:50;27.10;;;4.90;;
14040;SDS011;7095;51.388;6.196;2023-02-01T02:28:37;22.97;;;5.80;;
14040;SDS011;7095;51.388;6.196;2023-02-01T02:31:30;21.17;;;5.87;;
14040;SDS011;7095;51.388;6.196;2023-02-01T02:34:16;26.73;;;6.40;;
14040;SDS011;7095;51.388;6.196;2023-02-01T02:36:52;30.87;;;5.50;;
14040;SDS011;7095;51.388;6.196;2023-02-01T02:39:35;22.20;;;5.50;;
14040;SDS011;7095;51.388;6.196;2023-02-01T02:42:12;24.30;;;5.27;;
14040;SDS011;7095;51.388;6.196;2023-02-01T02:45:06;25.67;;;6.57;;
14040;SDS011;7095;51.388;6.196;2023-02-01T02:48:00;21.10;;;5.83;;
14040;SDS011;7095;51.388;6.196;2023-02-01T02:50:37;19.87;;;6.17;;
14040;SDS011;7095;51.388;6.196;2023-02-01T02:53:32;24.50;;;6.50;;
14040;SDS011;7095;51.388;6.196;2023-02-01T02:56:21;30.03;;;6.07;;
14040;SDS011;7095;51.388;6.196;2023-02-01T02:59:11;27.03;;;7.80;;
14040;SDS011;7095;51.388;6.196;2023-02-01T03:02:00;20.23;;;6.37;;
14040;SDS011;7095;51.388;6.196;2023-02-01T03:04:46;29.57;;;6.23;;
14040;SDS011;7095;51.388;6.196;2023-02-01T03:10:27;27.13;;;6.87;;
14040;SDS011;7095;51.388;6.196;2023-02-01T03:13:04;23.43;;;6.53;;
14040;SDS011;7095;51.388;6.196;2023-02-01T03:15:39;31.73;;;6.97;;
14040;SDS011;7095;51.388;6.196;2023-02-01T03:18:13;27.37;;;7.13;;
14040;SDS011;7095;51.388;6.196;2023-02-01T03:20:48;27.33;;;6.80;;
14040;SDS011;7095;51.388;6.196;2023-02-01T03:23:22;37.63;;;6.50;;
14040;SDS011;7095;51.388;6.196;2023-02-01T03:25:56;18.77;;;5.40;;
14040;SDS011;7095;51.388;6.196;2023-02-01T03:28:29;27.20;;;6.33;;
14040;SDS011;7095;51.388;6.196;2023-02-01T03:31:01;30.90;;;6.33;;
14040;SDS011;7095;51.388;6.196;2023-02-01T03:33:30;25.87;;;6.60;;
14040;SDS011;7095;51.388;6.196;2023-02-01T03:36:03;30.93;;;5.73;;
14040;SDS011;7095;51.388;6.196;2023-02-01T03:38:42;23.87;;;5.83;;
14040;SDS011;7095;51.388;6.196;2023-02-01T03:41:18;20.60;;;5.27;;
14040;SDS011;7095;51.388;6.196;2023-02-01T03:43:52;26.23;;;5.93;;
14040;SDS011;7095;51.388;6.196;2023-02-01T03:46:26;27.07;;;6.07;;
14040;SDS011;7095;51.388;6.196;2023-02-01T03:49:02;25.30;;;6.30;;
14040;SDS011;7095;51.388;6.196;2023-02-01T03:51:38;29.80;;;5.80;;
14040;SDS011;7095;51.388;6.196;2023-02-01T03:54:11;28.50;;;6.07;;
14040;SDS011;7095;51.388;6.196;2023-02-01T03:56:42;31.90;;;6.27;;
14040;SDS011;7095;51.388;6.196;2023-02-01T03:59:13;17.23;;;5.20;;
14040;SDS011;7095;51.388;6.196;2023-02-01T04:01:42;25.30;;;6.13;;
14040;SDS011;7095;51.388;6.196;2023-02-01T04:04:11;23.30;;;5.30;;
14040;SDS011;7095;51.388;6.196;2023-02-01T04:06:50;16.97;;;5.10;;
14040;SDS011;7095;51.388;6.196;2023-02-01T04:09:20;29.23;;;5.60;;
14040;SDS011;7095;51.388;6.196;2023-02-01T04:11:49;29.77;;;6.00;;
14040;SDS011;7095;51.388;6.196;2023-02-01T04:14:17;30.93;;;6.43;;
14040;SDS011;7095;51.388;6.196;2023-02-01T04:16:46;23.27;;;5.60;;
14040;SDS011;7095;51.388;6.196;2023-02-01T04:19:14;23.80;;;5.67;;
14040;SDS011;7095;51.388;6.196;2023-02-01T04:21:43;28.83;;;6.03;;
14040;SDS011;7095;51.388;6.196;2023-02-01T04:24:11;22.63;;;4.87;;
14040;SDS011;7095;51.388;6.196;2023-02-01T04:26:41;23.70;;;5.23;;
14040;SDS011;7095;51.388;6.196;2023-02-01T04:29:10;29.77;;;5.90;;
14040;SDS011;7095;51.388;6.196;2023-02-01T04:31:38;29.23;;;5.43;;
14040;SDS011;7095;51.388;6.196;2023-02-01T04:34:07;30.73;;;5.93;;
14040;SDS011;7095;51.388;6.196;2023-02-01T04:36:36;26.57;;;6.10;;
14040;SDS011;7095;51.388;6.196;2023-02-01T04:39:04;21.27;;;5.80;;
14040;SDS011;7095;51.388;6.196;2023-02-01T04:41:32;18.00;;;5.00;;
14040;SDS011;7095;51.388;6.196;2023-02-01T04:44:02;27.80;;;5.70;;
14040;SDS011;7095;51.388;6.196;2023-02-01T04:46:31;23.23;;;5.30;;
14040;SDS011;7095;51.388;6.196;2023-02-01T04:48:59;29.30;;;5.37;;
14040;SDS011;7095;51.388;6.196;2023-02-01T04:51:28;22.73;;;5.67;;
14040;SDS011;7095;51.388;6.196;2023-02-01T04:53:56;23.80;;;6.03;;
14040;SDS011;7095;51.388;6.196;2023-02-01T04:56:25;22.90;;;5.27;;
14040;SDS011;7095;51.388;6.196;2023-02-01T04:58:53;28.40;;;7.10;;
14040;SDS011;7095;51.388;6.196;2023-02-01T05:01:23;29.60;;;5.23;;
14040;SDS011;7095;51.388;6.196;2023-02-01T05:03:52;21.93;;;5.00;;
14040;SDS011;7095;51.388;6.196;2023-02-01T05:06:20;24.57;;;5.70;;
14040;SDS011;7095;51.388;6.196;2023-02-01T05:08:49;27.30;;;5.30;;
14040;SDS011;7095;51.388;6.196;2023-02-01T05:11:18;28.17;;;5.83;;
14040;SDS011;7095;51.388;6.196;2023-02-01T05:14:04;31.73;;;6.17;;
14040;SDS011;7095;51.388;6.196;2023-02-01T05:16:33;28.57;;;6.10;;
14040;SDS011;7095;51.388;6.196;2023-02-01T05:19:02;29.73;;;6.13;;
14040;SDS011;7095;51.388;6.196;2023-02-01T05:21:30;31.00;;;5.93;;
14040;SDS011;7095;51.388;6.196;2023-02-01T05:23:59;23.60;;;6.27;;
14040;SDS011;7095;51.388;6.196;2023-02-01T05:26:41;26.13;;;5.53;;
14040;SDS011;7095;51.388;6.196;2023-02-01T05:29:10;31.53;;;7.00;;
14040;SDS011;7095;51.388;6.196;2023-02-01T05:31:41;33.80;;;6.10;;
14040;SDS011;7095;51.388;6.196;2023-02-01T05:34:09;29.23;;;6.50;;
14040;SDS011;7095;51.388;6.196;2023-02-01T05:36:38;29.60;;;6.27;;
14040;SDS011;7095;51.388;6.196;2023-02-01T05:39:06;24.17;;;5.43;;
14040;SDS011;7095;51.388;6.196;2023-02-01T05:41:35;27.37;;;5.70;;
14040;SDS011;7095;51.388;6.196;2023-02-01T05:44:03;26.63;;;6.67;;
14040;SDS011;7095;51.388;6.196;2023-02-01T05:46:34;28.33;;;5.20;;
14040;SDS011;7095;51.388;6.196;2023-02-01T05:49:04;25.27;;;6.50;;
14040;SDS011;7095;51.388;6.196;2023-02-01T05:51:33;28.27;;;6.43;;
14040;SDS011;7095;51.388;6.196;2023-02-01T05:54:01;24.73;;;5.57;;
14040;SDS011;7095;51.388;6.196;2023-02-01T05:56:29;22.20;;;5.20;;
14040;SDS011;7095;51.388;6.196;2023-02-01T05:58:58;30.63;;;6.87;;
14040;SDS011;7095;51.388;6.196;2023-02-01T06:01:26;19.83;;;5.07;;
14040;SDS011;7095;51.388;6.196;2023-02-01T06:03:54;21.63;;;5.30;;
14040;SDS011;7095;51.388;6.196;2023-02-01T06:06:24;23.93;;;5.30;;
14040;SDS011;7095;51.388;6.196;2023-02-01T06:08:53;24.27;;;5.80;;
14040;SDS011;7095;51.388;6.196;2023-02-01T06:11:21;32.43;;;6.33;;
14040;SDS011;7095;51.388;6.196;2023-02-01T06:13:58;24.03;;;5.93;;
14040;SDS011;7095;51.388;6.196;2023-02-01T06:16:27;35.63;;;7.43;;
14040;SDS011;7095;51.388;6.196;2023-02-01T06:18:55;27.93;;;6.20;;
14040;SDS011;7095;51.388;6.196;2023-02-01T06:21:26;25.90;;;6.33;;
14040;SDS011;7095;51.388;6.196;2023-02-01T06:23:54;29.97;;;6.23;;
14040;SDS011;7095;51.388;6.196;2023-02-01T06:26:24;25.97;;;6.13;;
14040;SDS011;7095;51.388;6.196;2023-02-01T06:28:55;34.10;;;6.73;;
14040;SDS011;7095;51.388;6.196;2023-02-01T06:31:24;34.07;;;6.53;;
14040;SDS011;7095;51.388;6.196;2023-02-01T06:33:53;19.43;;;5.93;;
14040;SDS011;7095;51.388;6.196;2023-02-01T06:36:21;43.03;;;7.97;;
14040;SDS011;7095;51.388;6.196;2023-02-01T06:38:51;23.50;;;6.17;;
14040;SDS011;7095;51.388;6.196;2023-02-01T06:41:20;22.63;;;5.50;;
14040;SDS011;7095;51.388;6.196;2023-02-01T06:43:48;38.60;;;6.93;;
14040;SDS011;7095;51.388;6.196;2023-02-01T06:46:17;32.50;;;7.50;;
14040;SDS011;7095;51.388;6.196;2023-02-01T06:48:46;29.70;;;6.80;;
14040;SDS011;7095;51.388;6.196;2023-02-01T06:51:18;22.13;;;6.03;;
14040;SDS011;7095;51.388;6.196;2023-02-01T06:53:53;26.50;;;6.83;;
14040;SDS011;7095;51.388;6.196;2023-02-01T06:56:21;30.93;;;5.53;;
14040;SDS011;7095;51.388;6.196;2023-02-01T06:58:50;31.87;;;9.40;;
14040;SDS011;7095;51.388;6.196;2023-02-01T07:01:19;34.67;;;6.73;;
14040;SDS011;7095;51.388;6.196;2023-02-01T07:03:47;26.33;;;6.70;;
14040;SDS011;7095;51.388;6.196;2023-02-01T07:06:18;23.97;;;4.90;;
14040;SDS011;7095;51.388;6.196;2023-02-01T07:08:47;25.90;;;5.73;;
14040;SDS011;7095;51.388;6.196;2023-02-01T07:11:17;40.23;;;8.30;;
14040;SDS011;7095;51.388;6.196;2023-02-01T07:13:46;25.43;;;5.63;;
14040;SDS011;7095;51.388;6.196;2023-02-01T07:16:15;27.50;;;5.53;;
14040;SDS011;7095;51.388;6.196;2023-02-01T07:18:46;28.07;;;5.90;;
14040;SDS011;7095;51.388;6.196;2023-02-01T07:21:14;30.83;;;6.27;;
14040;SDS011;7095;51.388;6.196;2023-02-01T07:23:43;35.03;;;6.53;;
14040;SDS011;7095;51.388;6.196;2023-02-01T07:26:12;32.10;;;5.87;;
14040;SDS011;7095;51.388;6.196;2023-02-01T07:28:44;30.80;;;5.67;;
14040;SDS011;7095;51.388;6.196;2023-02-01T07:31:14;27.83;;;5.90;;
14040;SDS011;7095;51.388;6.196;2023-02-01T07:33:44;28.60;;;5.60;;
14040;SDS011;7095;51.388;6.196;2023-02-01T07:36:14;26.93;;;5.13;;
14040;SDS011;7095;51.388;6.196;2023-02-01T07:38:44;27.00;;;5.43;;
14040;SDS011;7095;51.388;6.196;2023-02-01T07:41:13;28.40;;;5.87;;
14040;SDS011;7095;51.388;6.196;2023-02-01T07:43:42;29.97;;;6.53;;
14040;SDS011;7095;51.388;6.196;2023-02-01T07:46:12;29.07;;;7.00;;
14040;SDS011;7095;51.388;6.196;2023-02-01T07:48:42;26.60;;;6.27;;
14040;SDS011;7095;51.388;6.196;2023-02-01T07:51:11;27.13;;;5.57;;
14040;SDS011;7095;51.388;6.196;2023-02-01T07:53:41;39.13;;;5.87;;
14040;SDS011;7095;51.388;6.196;2023-02-01T07:56:11;33.60;;;6.03;;
14040;SDS011;7095;51.388;6.196;2023-02-01T07:58:41;37.37;;;5.90;;
14040;SDS011;7095;51.388;6.196;2023-02-01T08:01:15;38.27;;;6.80;;
14040;SDS011;7095;51.388;6.196;2023-02-01T08:03:46;28.30;;;6.53;;
14040;SDS011;7095;51.388;6.196;2023-02-01T08:06:15;25.87;;;5.70;;
14040;SDS011;7095;51.388;6.196;2023-02-01T08:08:44;26.77;;;5.30;;
14040;SDS011;7095;51.388;6.196;2023-02-01T08:11:13;30.17;;;7.13;;
14040;SDS011;7095;51.388;6.196;2023-02-01T08:13:42;26.90;;;5.67;;
14040;SDS011;7095;51.388;6.196;2023-02-01T08:16:12;25.77;;;5.97;;
14040;SDS011;7095;51.388;6.196;2023-02-01T08:18:43;28.37;;;6.50;;
14040;SDS011;7095;51.388;6.196;2023-02-01T08:21:13;22.87;;;5.80;;
14040;SDS011;7095;51.388;6.196;2023-02-01T08:23:43;29.97;;;6.33;;
14040;SDS011;7095;51.388;6.196;2023-02-01T08:26:13;29.57;;;6.20;;
14040;SDS011;7095;51.388;6.196;2023-02-01T08:28:43;33.43;;;6.10;;
14040;SDS011;7095;51.388;6.196;2023-02-01T08:31:15;36.37;;;6.07;;
14040;SDS011;7095;51.388;6.196;2023-02-01T08:33:47;34.50;;;6.60;;
14040;SDS011;7095;51.388;6.196;2023-02-01T08:36:17;25.00;;;5.90;;
14040;SDS011;7095;51.388;6.196;2023-02-01T08:38:45;29.17;;;5.57;;
14040;SDS011;7095;51.388;6.196;2023-02-01T08:41:15;23.33;;;5.07;;
14040;SDS011;7095;51.388;6.196;2023-02-01T08:43:45;24.17;;;6.27;;
14040;SDS011;7095;51.388;6.196;2023-02-01T08:46:14;26.53;;;6.33;;
14040;SDS011;7095;51.388;6.196;2023-02-01T08:48:46;24.10;;;5.80;;
14040;SDS011;7095;51.388;6.196;2023-02-01T08:51:16;24.80;;;6.20;;
14040;SDS011;7095;51.388;6.196;2023-02-01T08:53:46;26.43;;;5.80;;
14040;SDS011;7095;51.388;6.196;2023-02-01T08:56:16;32.37;;;6.50;;
14040;SDS011;7095;51.388;6.196;2023-02-01T08:58:46;26.33;;;6.53;;
14040;SDS011;7095;51.388;6.196;2023-02-01T09:01:15;34.10;;;6.17;;
14040;SDS011;7095;51.388;6.196;2023-02-01T09:03:46;27.90;;;6.83;;
14040;SDS011;7095;51.388;6.196;2023-02-01T09:06:14;29.67;;;6.03;;
14040;SDS011;7095;51.388;6.196;2023-02-01T09:08:44;27.30;;;5.93;;
14040;SDS011;7095;51.388;6.196;2023-02-01T09:11:17;19.20;;;5.10;;
14040;SDS011;7095;51.388;6.196;2023-02-01T09:13:47;31.80;;;6.47;;
14040;SDS011;7095;51.388;6.196;2023-02-01T09:16:15;32.30;;;6.33;;
14040;SDS011;7095;51.388;6.196;2023-02-01T09:18:45;21.70;;;5.30;;
14040;SDS011;7095;51.388;6.196;2023-02-01T09:21:33;22.83;;;5.47;;
14040;SDS011;7095;51.388;6.196;2023-02-01T09:24:02;26.93;;;5.80;;
14040;SDS011;7095;51.388;6.196;2023-02-01T09:26:30;24.50;;;4.90;;
14040;SDS011;7095;51.388;6.196;2023-02-01T09:28:59;30.23;;;7.13;;
14040;SDS011;7095;51.388;6.196;2023-02-01T09:31:28;29.07;;;6.27;;
14040;SDS011;7095;51.388;6.196;2023-02-01T09:33:59;25.57;;;6.67;;
14040;SDS011;7095;51.388;6.196;2023-02-01T09:36:27;30.03;;;5.73;;
14040;SDS011;7095;51.388;6.196;2023-02-01T09:38:57;35.90;;;6.23;;
14040;SDS011;7095;51.388;6.196;2023-02-01T09:41:37;25.37;;;5.87;;
14040;SDS011;7095;51.388;6.196;2023-02-01T09:44:17;25.50;;;6.10;;
14040;SDS011;7095;51.388;6.196;2023-02-01T09:47:04;25.63;;;6.23;;
14040;SDS011;7095;51.388;6.196;2023-02-01T09:49:42;29.63;;;6.23;;
14040;SDS011;7095;51.388;6.196;2023-02-01T09:52:20;26.57;;;6.20;;
14040;SDS011;7095;51.388;6.196;2023-02-01T09:54:55;26.07;;;6.13;;
14040;SDS011;7095;51.388;6.196;2023-02-01T09:57:32;33.10;;;6.40;;
14040;SDS011;7095;51.388;6.196;2023-02-01T10:00:16;23.33;;;5.80;;
14040;SDS011;7095;51.388;6.196;2023-02-01T10:02:50;25.13;;;5.63;;
14040;SDS011;7095;51.388;6.196;2023-02-01T10:05:26;27.67;;;5.77;;
14040;SDS011;7095;51.388;6.196;2023-02-01T10:08:09;25.60;;;5.43;;
14040;SDS011;7095;51.388;6.196;2023-02-01T10:10:45;25.77;;;6.93;;
14040;SDS011;7095;51.388;6.196;2023-02-01T10:13:28;26.33;;;5.90;;
14040;SDS011;7095;51.388;6.196;2023-02-01T10:16:15;24.90;;;5.13;;
14040;SDS011;7095;51.388;6.196;2023-02-01T10:18:55;23.03;;;5.47;;
14040;SDS011;7095;51.388;6.196;2023-02-01T10:21:38;24.70;;;5.97;;
14040;SDS011;7095;51.388;6.196;2023-02-01T10:24:28;23.23;;;6.47;;
14040;SDS011;7095;51.388;6.196;2023-02-01T10:27:10;25.37;;;5.63;;
14040;SDS011;7095;51.388;6.196;2023-02-01T10:29:43;19.33;;;5.50;;
14040;SDS011;7095;51.388;6.196;2023-02-01T10:32:13;24.83;;;4.87;;
14040;SDS011;7095;51.388;6.196;2023-02-01T10:34:44;27.83;;;6.17;;
14040;SDS011;7095;51.388;6.196;2023-02-01T10:37:23;24.70;;;5.47;;
14040;SDS011;7095;51.388;6.196;2023-02-01T10:39:55;27.13;;;5.87;;
14040;SDS011;7095;51.388;6.196;2023-02-01T10:42:25;23.97;;;5.73;;
14040;SDS011;7095;51.388;6.196;2023-02-01T10:44:56;23.50;;;5.70;;
14040;SDS011;7095;51.388;6.196;2023-02-01T10:47:28;28.67;;;6.17;;
14040;SDS011;7095;51.388;6.196;2023-02-01T10:49:58;24.60;;;5.67;;
14040;SDS011;7095;51.388;6.196;2023-02-01T10:52:43;22.63;;;4.83;;
14040;SDS011;7095;51.388;6.196;2023-02-01T10:55:25;24.70;;;5.33;;
14040;SDS011;7095;51.388;6.196;2023-02-01T10:57:57;29.43;;;6.97;;
14040;SDS011;7095;51.388;6.196;2023-02-01T11:00:27;26.33;;;5.83;;
14040;SDS011;7095;51.388;6.196;2023-02-01T11:03:02;22.03;;;6.13;;
14040;SDS011;7095;51.388;6.196;2023-02-01T11:05:48;21.77;;;5.10;;
14040;SDS011;7095;51.388;6.196;2023-02-01T11:08:19;28.07;;;5.50;;
14040;SDS011;7095;51.388;6.196;2023-02-01T11:10:49;19.27;;;4.83;;
14040;SDS011;7095;51.388;6.196;2023-02-01T11:13:28;23.63;;;5.17;;
14040;SDS011;7095;51.388;6.196;2023-02-01T11:15:59;25.30;;;5.10;;
14040;SDS011;7095;51.388;6.196;2023-02-01T11:18:31;17.20;;;4.97;;
14040;SDS011;7095;51.388;6.196;2023-02-01T11:21:03;28.30;;;5.60;;
14040;SDS011;7095;51.388;6.196;2023-02-01T11:23:36;22.03;;;5.90;;
14040;SDS011;7095;51.388;6.196;2023-02-01T11:26:10;23.70;;;6.20;;
14040;SDS011;7095;51.388;6.196;2023-02-01T11:28:44;24.80;;;5.50;;
14040;SDS011;7095;51.388;6.196;2023-02-01T11:31:18;22.90;;;6.27;;
14040;SDS011;7095;51.388;6.196;2023-02-01T11:33:49;18.47;;;4.57;;
14040;SDS011;7095;51.388;6.196;2023-02-01T11:36:21;28.53;;;5.00;;
14040;SDS011;7095;51.388;6.196;2023-02-01T11:39:08;22.67;;;5.50;;
14040;SDS011;7095;51.388;6.196;2023-02-01T11:41:55;18.30;;;4.13;;
14040;SDS011;7095;51.388;6.196;2023-02-01T11:44:28;14.07;;;3.80;;
14040;SDS011;7095;51.388;6.196;2023-02-01T11:49:50;23.37;;;4.60;;
14040;SDS011;7095;51.388;6.196;2023-02-01T11:55:17;21.63;;;4.50;;
14040;SDS011;7095;51.388;6.196;2023-02-01T11:58:01;17.43;;;4.23;;
14040;SDS011;7095;51.388;6.196;2023-02-01T12:00:53;26.90;;;4.03;;
14040;SDS011;7095;51.388;6.196;2023-02-01T12:03:47;16.57;;;3.63;;
14040;SDS011;7095;51.388;6.196;2023-02-01T12:06:43;23.53;;;4.00;;
14040;SDS011;7095;51.388;6.196;2023-02-01T12:09:29;17.13;;;3.80;;
14040;SDS011;7095;51.388;6.196;2023-02-01T12:12:13;12.37;;;3.60;;
14040;SDS011;7095;51.388;6.196;2023-02-01T12:14:51;13.37;;;3.63;;
14040;SDS011;7095;51.388;6.196;2023-02-01T12:17:37;15.87;;;2.93;;
14040;SDS011;7095;51.388;6.196;2023-02-01T12:20:19;15.63;;;2.90;;
14040;SDS011;7095;51.388;6.196;2023-02-01T12:23:06;17.73;;;3.73;;
14040;SDS011;7095;51.388;6.196;2023-02-01T12:25:53;15.27;;;3.17;;
14040;SDS011;7095;51.388;6.196;2023-02-01T12:28:36;15.97;;;3.77;;
14040;SDS011;7095;51.388;6.196;2023-02-01T12:31:26;9.57;;;2.97;;
14040;SDS011;7095;51.388;6.196;2023-02-01T12:37:05;17.10;;;3.53;;
14040;SDS011;7095;51.388;6.196;2023-02-01T12:39:43;15.43;;;3.33;;
14040;SDS011;7095;51.388;6.196;2023-02-01T12:42:20;17.77;;;3.07;;
14040;SDS011;7095;51.388;6.196;2023-02-01T12:44:55;16.60;;;3.50;;
14040;SDS011;7095;51.388;6.196;2023-02-01T12:47:29;13.77;;;3.60;;
14040;SDS011;7095;51.388;6.196;2023-02-01T12:50:01;17.33;;;4.00;;
14040;SDS011;7095;51.388;6.196;2023-02-01T12:52:37;14.73;;;3.60;;
14040;SDS011;7095;51.388;6.196;2023-02-01T12:55:15;17.13;;;3.63;;
14040;SDS011;7095;51.388;6.196;2023-02-01T12:57:50;21.13;;;5.17;;
14040;SDS011;7095;51.388;6.196;2023-02-01T13:00:25;16.03;;;3.43;;
14040;SDS011;7095;51.388;6.196;2023-02-01T13:03:00;17.10;;;4.17;;
14040;SDS011;7095;51.388;6.196;2023-02-01T13:05:45;25.07;;;3.30;;
14040;SDS011;7095;51.388;6.196;2023-02-01T13:08:19;22.03;;;4.57;;
14040;SDS011;7095;51.388;6.196;2023-02-01T13:10:54;23.33;;;4.67;;
14040;SDS011;7095;51.388;6.196;2023-02-01T13:13:28;19.00;;;3.73;;
14040;SDS011;7095;51.388;6.196;2023-02-01T13:16:04;16.77;;;3.23;;
14040;SDS011;7095;51.388;6.196;2023-02-01T13:18:41;23.83;;;4.53;;
14040;SDS011;7095;51.388;6.196;2023-02-01T13:21:14;18.23;;;3.87;;
14040;SDS011;7095;51.388;6.196;2023-02-01T13:23:47;18.13;;;4.70;;
14040;SDS011;7095;51.388;6.196;2023-02-01T13:26:18;17.27;;;4.10;;
14040;SDS011;7095;51.388;6.196;2023-02-01T13:28:47;14.87;;;3.57;;
14040;SDS011;7095;51.388;6.196;2023-02-01T13:34:37;20.00;;;4.13;;
14040;SDS011;7095;51.388;6.196;2023-02-01T13:37:27;19.40;;;4.37;;
14040;SDS011;7095;51.388;6.196;2023-02-01T13:40:16;20.87;;;4.03;;
14040;SDS011;7095;51.388;6.196;2023-02-01T13:42:55;21.47;;;3.90;;
14040;SDS011;7095;51.388;6.196;2023-02-01T13:45:27;27.90;;;5.03;;
14040;SDS011;7095;51.388;6.196;2023-02-01T13:48:01;17.23;;;4.80;;
14040;SDS011;7095;51.388;6.196;2023-02-01T13:50:32;21.03;;;3.87;;
14040;SDS011;7095;51.388;6.196;2023-02-01T13:53:11;17.27;;;3.63;;
14040;SDS011;7095;51.388;6.196;2023-02-01T13:55:45;21.17;;;3.40;;
14040;SDS011;7095;51.388;6.196;2023-02-01T13:58:18;23.00;;;4.40;;
14040;SDS011;7095;51.388;6.196;2023-02-01T14:00:50;19.37;;;3.80;;
14040;SDS011;7095;51.388;6.196;2023-02-01T14:03:21;22.70;;;5.00;;
14040;SDS011;7095;51.388;6.196;2023-02-01T14:15:17;23.93;;;3.97;;
14040;SDS011;7095;51.388;6.196;2023-02-01T14:17:51;20.73;;;3.90;;
14040;SDS011;7095;51.388;6.196;2023-02-01T14:23:14;19.47;;;3.83;;
14040;SDS011;7095;51.388;6.196;2023-02-01T14:25:45;20.77;;;4.10;;
14040;SDS011;7095;51.388;6.196;2023-02-01T14:28:21;19.70;;;4.43;;
14040;SDS011;7095;51.388;6.196;2023-02-01T14:30:53;16.90;;;4.03;;
14040;SDS011;7095;51.388;6.196;2023-02-01T14:33:25;22.37;;;4.33;;
14040;SDS011;7095;51.388;6.196;2023-02-01T14:36:04;18.17;;;4.10;;
14040;SDS011;7095;51.388;6.196;2023-02-01T14:38:36;15.50;;;3.30;;
14040;SDS011;7095;51.388;6.196;2023-02-01T14:41:13;19.33;;;4.13;;
14040;SDS011;7095;51.388;6.196;2023-02-01T14:49:55;17.03;;;4.07;;
14040;SDS011;7095;51.388;6.196;2023-02-01T14:52:41;21.60;;;4.00;;
14040;SDS011;7095;51.388;6.196;2023-02-01T14:55:15;24.50;;;4.23;;
14040;SDS011;7095;51.388;6.196;2023-02-01T14:57:48;19.73;;;4.30;;
14040;SDS011;7095;51.388;6.196;2023-02-01T15:00:22;24.07;;;4.47;;
14040;SDS011;7095;51.388;6.196;2023-02-01T15:02:53;26.03;;;4.23;;
14040;SDS011;7095;51.388;6.196;2023-02-01T15:05:23;18.67;;;3.87;;
14040;SDS011;7095;51.388;6.196;2023-02-01T15:07:58;21.17;;;3.93;;
14040;SDS011;7095;51.388;6.196;2023-02-01T15:10:33;19.43;;;3.30;;
14040;SDS011;7095;51.388;6.196;2023-02-01T15:13:19;18.60;;;4.53;;
14040;SDS011;7095;51.388;6.196;2023-02-01T15:16:02;22.37;;;4.67;;
14040;SDS011;7095;51.388;6.196;2023-02-01T15:18:32;22.93;;;4.63;;
14040;SDS011;7095;51.388;6.196;2023-02-01T15:21:01;20.17;;;4.63;;
14040;SDS011;7095;51.388;6.196;2023-02-01T15:24:05;22.13;;;4.60;;
14040;SDS011;7095;51.388;6.196;2023-02-01T15:26:38;19.67;;;4.40;;
14040;SDS011;7095;51.388;6.196;2023-02-01T15:29:10;27.73;;;5.20;;
14040;SDS011;7095;51.388;6.196;2023-02-01T15:31:40;26.97;;;4.67;;
14040;SDS011;7095;51.388;6.196;2023-02-01T15:34:11;22.43;;;4.30;;
14040;SDS011;7095;51.388;6.196;2023-02-01T15:36:41;21.03;;;4.77;;
14040;SDS011;7095;51.388;6.196;2023-02-01T15:39:29;17.13;;;4.00;;
14040;SDS011;7095;51.388;6.196;2023-02-01T15:42:00;28.23;;;4.37;;
14040;SDS011;7095;51.388;6.196;2023-02-01T15:44:38;22.73;;;4.63;;
14040;SDS011;7095;51.388;6.196;2023-02-01T15:47:12;13.27;;;4.10;;
14040;SDS011;7095;51.388;6.196;2023-02-01T15:49:44;18.40;;;4.30;;
14040;SDS011;7095;51.388;6.196;2023-02-01T15:52:22;22.30;;;4.40;;
14040;SDS011;7095;51.388;6.196;2023-02-01T15:54:56;21.77;;;4.73;;
14040;SDS011;7095;51.388;6.196;2023-02-01T15:57:28;19.90;;;3.80;;
14040;SDS011;7095;51.388;6.196;2023-02-01T16:00:02;23.00;;;4.50;;
14040;SDS011;7095;51.388;6.196;2023-02-01T16:02:41;21.73;;;4.90;;